Date,TemperatureHighF,TemperatureAvgF,TemperatureLowF,DewpointHighF,DewpointAvgF,DewpointLowF,HumidityHigh,HumidityAvg,HumidityLow,PressureMaxIn,PressureMinIn,WindSpeedMaxMPH,WindSpeedAvgMPH,GustSpeedMaxMPH,PrecipitationSumIn
2013-3-11,69,56,48,50,31,14,98,43,15,29.36,29.09,0,0,0,0.00
2013-3-12,98,56,37,68,50,28,98,82,28,29.15,28.91,0,0,0,1.62
2013-3-13,60,42,28,50,24,7,98,52,29,29.27,29.09,1,0,3,0.03
2013-3-14,50,39,29,11,3,-4,40,24,14,29.36,29.24,0,0,0,0.00
2013-3-15,59,43,28,21,11,-1,43,28,14,29.95,29.00,6,1,10,0.00
2013-3-16,57,47,39,47,34,19,90,63,40,29.83,28.85,4,1,6,0.07
2013-3-17,56,36,34,46,34,32,93,90,69,29.47,28.85,2,0,3,0.03
2013-3-18,35,34,33,33,32,31,96,93,88,29.44,29.06,2,0,4,0.17
2013-3-19,59,42,32,44,26,5,98,64,19,29.12,28.91,8,2,16,0.40
2013-3-20,52,43,34,18,13,6,41,29,23,29.21,28.94,7,2,14,0.00
2013-3-21,40,34,27,22,12,5,53,41,32,29.09,28.94,6,2,11,0.00
2013-3-22,51,36,26,19,12,6,45,37,27,29.15,29.03,6,2,10,0.00
2013-3-23,57,42,28,22,17,13,56,38,25,29.21,29.06,5,1,8,0.00
2013-3-24,43,36,33,28,22,16,81,57,40,29.18,28.80,4,1,6,0.00
2013-3-25,40,36,33,34,30,27,90,80,72,29.36,28.71,3,0,4,0.29
2013-3-26,48,40,33,28,25,22,73,56,40,29.21,28.88,6,2,10,0.25
2013-3-27,49,41,34,25,22,18,63,47,37,29.33,29.18,8,2,17,0.00
2013-3-28,49,41,35,25,21,19,58,46,38,29.44,29.24,6,2,9,0.00
2013-3-29,58,44,32,32,25,21,74,50,29,29.44,29.33,5,1,10,0.00
2013-3-30,60,47,36,42,26,20,71,45,31,29.42,29.24,6,1,14,0.00
2013-3-31,53,46,36,46,37,25,92,71,47,29.30,28.94,4,0,7,0.00
2013-4-1,63,51,40,45,33,19,93,53,33,29.15,28.94,7,2,12,0.00
2013-4-2,54,42,33,20,15,10,50,34,21,29.36,29.15,7,2,10,0.00
2013-4-3,57,41,29,21,14,10,52,34,20,29.53,29.36,7,2,9,0.00
2013-4-4,47,38,28,30,17,10,78,45,30,29.59,29.24,4,1,7,0.16
2013-4-5,67,49,36,43,31,25,96,57,25,29.24,29.00,6,1,10,0.17
2013-4-6,60,46,36,26,21,18,67,38,25,29.47,29.21,4,1,7,0.00
2013-4-7,72,53,37,40,32,21,68,46,32,29.44,29.18,7,1,10,0.00
2013-4-8,77,57,47,48,42,38,74,60,31,29.30,29.21,4,1,8,0.00
2013-4-9,86,72,57,51,48,37,71,45,29,29.30,29.12,5,1,8,0.00
2013-4-10,92,74,58,53,49,45,72,45,20,29.21,29.00,6,1,9,0.00
2013-4-11,84,70,57,56,52,37,71,55,32,29.21,28.94,7,1,8,0.00
2013-4-12,77,67,60,67,48,20,98,59,18,28.94,28.77,8,1,15,0.00
2013-4-13,72,62,45,60,17,4,93,20,10,29.15,28.85,6,2,12,0.00
2013-4-14,78,61,43,36,19,10,48,22,10,29.33,29.15,4,1,8,0.00
2013-4-15,61,56,51,54,46,25,94,72,27,29.47,29.30,2,0,4,0.11
2013-4-16,69,60,54,61,56,53,98,86,60,29.50,29.36,4,0,5,0.00
2013-4-17,82,68,58,64,52,40,98,64,25,29.42,29.30,4,1,7,0.00
2013-4-18,74,64,59,65,56,43,98,78,36,29.42,29.18,3,0,5,0.00
2013-4-19,69,64,58,67,60,36,98,88,43,29.18,28.82,5,0,12,0.00
2013-4-20,65,54,44,39,28,22,51,38,25,29.47,28.94,6,2,12,0.00
2013-4-21,58,47,37,31,27,24,71,47,35,29.74,29.47,4,1,8,0.00
2013-4-22,63,49,37,31,22,10,69,40,13,29.74,29.53,5,1,8,0.00
2013-4-23,66,53,46,40,30,24,76,41,25,29.56,29.30,4,1,6,0.00
2013-4-24,79,62,44,57,40,32,96,53,21,29.33,29.00,6,1,12,0.00
2013-4-25,70,58,45,35,20,10,41,25,12,29.47,29.15,6,1,11,0.00
2013-4-26,74,58,42,33,21,12,49,26,11,29.62,29.47,6,1,6,0.00
2013-4-27,74,61,47,41,28,19,63,32,15,29.59,29.44,4,1,8,0.00
2013-4-28,57,54,50,51,43,32,92,69,42,29.47,29.30,2,0,4,0.07
2013-4-29,65,57,52,58,54,50,97,90,75,29.36,29.18,3,0,5,0.07
2013-4-30,66,59,55,57,54,52,96,86,67,29.47,29.24,3,1,7,0.04
2013-5-1,73,61,54,54,45,37,95,60,31,29.59,29.44,4,1,7,0.00
2013-5-2,72,57,46,46,42,39,82,59,32,29.59,29.47,4,1,7,0.00
2013-5-3,69,56,48,51,45,39,91,68,39,29.56,29.42,3,1,6,0.00
2013-5-4,66,54,45,48,42,38,79,66,43,29.50,29.36,4,1,6,0.00
2013-5-5,67,54,44,44,40,37,82,63,38,29.42,29.30,4,1,7,0.00
2013-5-6,59,56,52,58,52,44,98,87,68,29.36,29.18,4,1,7,0.06
2013-5-7,61,57,53,61,56,53,98,98,98,29.21,29.06,4,1,6,0.00
2013-5-8,64,56,50,64,56,49,98,98,94,29.21,29.09,3,0,7,0.00
2013-5-9,78,61,47,62,53,46,98,79,37,29.21,29.03,4,0,10,0.00
2013-5-10,84,68,55,63,57,53,95,73,39,29.12,28.94,4,0,6,0.00
2013-5-11,81,68,61,66,60,53,98,80,43,28.97,28.77,6,0,11,0.00
2013-5-12,72,60,49,59,23,8,74,29,12,29.12,28.80,5,1,8,0.00
2013-5-13,63,51,41,34,21,8,61,34,14,29.27,29.09,4,0,6,0.00
2013-5-14,73,56,37,37,25,12,70,37,11,29.30,29.06,4,0,6,0.00
2013-5-15,86,67,49,55,41,32,81,45,21,29.09,28.77,4,1,6,0.00
2013-5-16,92,75,66,53,42,33,52,33,17,29.00,28.82,5,1,10,0.00
2013-5-17,87,71,60,63,49,32,92,51,19,29.21,29.00,4,0,6,0.00
2013-5-18,64,62,61,62,61,60,98,95,92,29.33,29.15,2,0,3,0.00
2013-5-19,68,63,60,65,62,60,98,96,89,29.30,29.15,2,0,3,0.00
2013-5-20,78,69,64,70,66,64,98,91,69,29.21,29.06,2,0,4,0.00
2013-5-21,85,72,63,73,68,62,98,89,61,29.12,28.94,3,0,5,0.00
2013-5-22,88,74,67,73,68,60,98,83,47,29.06,28.88,4,0,7,0.00
2013-5-23,78,69,63,71,66,62,98,92,70,28.97,28.82,4,0,6,0.00
2013-5-24,65,59,49,63,46,30,98,66,37,29.27,28.82,6,1,14,0.00
2013-5-25,72,58,43,67,19,8,98,25,10,29.33,28.94,5,1,10,0.00
2013-5-26,78,61,45,40,22,8,67,28,9,29.33,29.18,4,1,7,0.00
2013-5-27,77,59,48,46,36,19,65,44,13,29.39,29.24,2,0,4,0.00
2013-5-28,86,69,53,61,50,41,93,58,24,29.30,29.12,4,0,6,0.00
2013-5-29,94,76,61,73,53,39,97,56,17,29.21,29.12,4,0,6,0.00
2013-5-30,96,77,62,73,54,40,96,55,18,29.30,29.18,4,0,6,0.00
2013-5-31,95,77,62,70,53,40,94,53,17,29.24,29.09,4,0,6,0.00
2013-6-1,95,78,64,67,55,42,93,54,19,29.12,28.97,4,0,6,0.00
2013-6-2,80,72,65,68,64,59,92,75,60,29.00,28.88,3,0,5,0.00
2013-6-3,85,73,67,75,58,44,98,66,29,29.06,28.88,4,0,6,0.04
2013-6-4,84,70,60,56,35,15,79,36,9,29.24,29.03,5,0,8,0.00
2013-6-5,87,70,57,51,42,23,62,41,11,29.24,29.12,4,0,6,0.00
2013-6-6,67,63,60,65,57,44,98,82,49,29.12,28.91,2,0,4,1.21
2013-6-7,71,66,64,70,66,63,98,98,98,28.91,28.65,3,0,4,0.78
2013-6-8,81,70,63,72,60,46,98,77,35,29.15,28.85,3,0,5,0.00
2013-6-9,79,70,62,70,65,61,98,85,61,29.27,29.12,3,0,6,0.75
2013-6-10,77,70,66,77,69,65,98,98,97,29.15,28.88,4,0,6,0.79
2013-6-11,88,72,63,79,59,46,98,69,26,28.97,28.88,4,0,7,0.00
2013-6-12,94,78,64,74,59,44,96,61,21,28.97,28.82,3,0,6,0.00
2013-6-13,87,72,66,77,62,44,97,72,30,28.88,28.56,4,1,11,0.00
2013-6-14,84,70,62,47,39,31,55,34,17,29.06,28.71,5,1,11,0.00
2013-6-15,91,72,58,60,43,24,86,43,10,29.18,29.03,3,0,6,0.00
2013-6-16,93,74,62,68,56,40,93,60,18,29.09,28.97,4,0,5,0.00
2013-6-17,91,75,67,73,61,48,96,69,25,29.03,28.94,3,1,4,0.00
2013-6-18,73,69,63,71,66,62,98,92,78,28.97,28.82,1,0,4,0.03
2013-6-19,77,68,62,70,60,51,98,78,48,29.21,28.94,3,0,4,0.00
2013-6-20,78,70,66,67,59,47,97,72,36,29.36,29.21,3,0,6,0.00
2013-6-21,88,73,59,59,46,25,82,46,10,29.39,29.27,2,0,4,0.00
2013-6-22,91,74,61,70,55,44,95,58,21,29.33,29.18,4,0,7,0.00
2013-6-23,86,76,68,72,64,52,96,70,33,29.27,29.12,3,0,4,0.00
2013-6-24,95,76,62,77,64,44,96,72,20,29.33,29.09,3,0,8,0.00
2013-6-25,96,80,67,76,61,45,97,62,20,29.12,28.94,3,0,4,0.00
2013-6-26,97,76,62,75,66,49,97,79,21,29.33,28.88,5,0,10,0.00
2013-6-27,80,72,68,74,69,67,98,91,66,28.91,28.65,3,0,4,0.00
2013-6-28,93,78,67,76,58,44,97,58,25,28.74,28.50,4,0,6,0.00
2013-6-29,95,77,64,63,50,25,82,46,11,28.77,28.59,5,0,8,0.00
2013-6-30,91,76,67,72,63,51,96,69,28,28.91,28.71,14,0,74,0.00
2013-7-1,82,74,70,76,69,63,96,85,58,29.03,28.91,3,0,5,0.04
2013-7-2,78,74,71,74,71,70,97,93,80,29.24,29.00,3,0,4,0.03
2013-7-3,81,74,70,78,72,70,98,95,77,29.33,29.21,3,0,4,0.55
2013-7-4,73,72,72,72,71,71,98,98,97,29.33,29.21,4,0,11,0.03
2013-7-5,72,72,72,71,71,71,98,98,98,29.36,29.18,4,0,6,0.06
2013-7-6,96,79,69,81,63,50,98,65,25,29.30,29.12,4,0,6,0.00
2013-7-7,95,78,69,79,65,53,97,72,27,29.24,29.06,5,0,8,0.41
2013-7-8,89,76,67,79,63,48,98,71,29,29.21,29.12,4,0,6,0.00
2013-7-9,93,77,69,79,66,51,96,72,29,29.18,29.06,3,0,4,0.00
2013-7-10,85,75,70,76,72,67,97,90,63,29.09,28.94,3,0,5,0.25
2013-7-11,87,76,70,78,67,53,98,79,38,28.97,28.91,3,0,5,0.21
2013-7-12,71,68,65,70,67,64,98,96,86,29.12,28.97,4,0,6,0.99
2013-7-13,86,74,64,75,63,48,98,73,29,29.33,29.12,2,0,3,0.05
2013-7-14,91,79,72,80,65,50,97,69,28,29.44,29.33,4,0,6,0.04
2013-7-15,97,81,70,82,64,44,97,65,19,29.42,29.30,2,0,3,0.00
2013-7-16,99,82,72,80,71,49,95,74,19,29.33,29.24,3,0,5,0.00
2013-7-17,91,80,72,78,74,70,93,81,57,29.33,29.18,3,0,5,0.00
2013-7-18,92,81,72,78,74,71,96,82,55,29.21,29.06,3,0,4,0.00
2013-7-19,91,80,73,81,73,66,97,82,57,29.12,28.94,3,0,4,0.00
2013-7-20,93,80,72,76,71,67,95,77,44,29.00,28.88,3,0,6,0.00
2013-7-21,99,76,70,73,70,52,95,82,21,29.33,28.91,4,0,7,0.30
2013-7-22,84,76,70,78,72,69,98,89,69,29.00,28.80,5,0,6,0.00
2013-7-23,89,77,71,72,70,64,96,79,47,28.85,28.71,4,0,6,0.00
2013-7-24,85,75,69,71,68,65,92,79,59,28.88,28.71,3,0,5,0.00
2013-7-25,99,72,63,61,59,52,86,64,21,29.33,29.00,3,0,4,0.00
2013-7-26,86,70,60,64,59,55,89,70,39,29.18,29.06,3,0,4,0.00
2013-7-27,76,71,66,72,67,64,96,88,78,29.12,28.97,2,0,4,0.00
2013-7-28,82,72,68,71,68,66,97,89,58,29.00,28.94,3,0,6,0.00
2013-7-29,99,72,62,63,56,48,89,59,21,29.33,29.09,4,0,7,0.00
2013-7-30,99,72,60,61,57,52,86,63,21,29.33,29.18,4,0,6,0.00
2013-7-31,80,70,65,68,65,60,94,83,61,29.24,29.03,3,0,4,0.04
2013-8-1,83,72,68,72,69,66,98,91,63,29.06,28.88,4,0,6,0.16
2013-8-2,88,73,65,67,63,57,97,74,37,29.03,28.91,4,0,7,0.05
2013-8-3,80,71,66,70,65,60,89,80,64,29.06,28.97,3,0,6,0.00
2013-8-4,83,71,62,64,57,50,90,65,35,29.09,28.97,5,1,8,0.00
2013-8-5,80,69,59,61,56,52,88,67,41,29.15,29.06,4,0,6,0.00
2013-8-6,79,70,66,68,65,61,96,84,64,29.09,29.03,2,0,4,0.50
2013-8-7,84,73,69,73,70,68,98,91,64,29.12,29.03,4,0,6,0.04
2013-8-8,80,74,69,75,72,69,98,92,79,29.12,29.00,3,0,4,0.04
2013-8-9,89,78,69,76,73,68,98,86,60,29.09,28.94,6,0,7,0.50
2013-8-10,80,74,71,75,71,69,97,90,74,29.15,29.00,2,0,4,1.33
2013-8-11,80,74,68,73,70,67,97,89,72,29.21,29.06,4,0,6,0.17
2013-8-12,87,75,68,74,70,65,98,85,54,29.12,28.94,3,0,4,0.00
2013-8-13,86,75,71,72,70,64,98,84,59,28.97,28.80,3,0,4,0.00
2013-8-14,77,68,59,64,51,43,78,57,36,29.18,28.88,4,1,7,0.00
2013-8-15,78,64,56,56,52,48,88,66,40,29.27,29.12,3,0,5,0.00
2013-8-16,76,65,56,60,55,51,92,71,44,29.30,29.18,3,0,5,0.00
2013-8-17,78,66,58,61,57,54,91,73,48,29.36,29.24,3,0,6,0.00
2013-8-18,68,65,62,65,63,60,96,93,80,29.36,29.24,1,0,2,1.24
2013-8-19,72,68,64,69,66,62,98,94,88,29.33,29.12,1,0,2,0.04
2013-8-20,83,72,64,72,68,64,98,87,65,29.30,29.15,3,0,5,0.00
2013-8-21,84,74,67,75,70,66,98,88,65,29.30,29.15,3,0,4,0.17
2013-8-22,84,72,66,71,67,63,98,85,56,29.18,29.03,2,0,4,0.04
2013-8-23,70,67,60,70,66,58,98,95,90,29.21,29.00,3,0,4,1.15
2013-8-24,80,66,58,65,59,56,98,79,48,29.39,29.18,3,0,6,0.00
2013-8-25,78,68,61,66,61,57,97,81,56,29.50,29.33,3,0,6,0.00
2013-8-26,81,69,59,67,62,57,98,81,49,29.39,29.09,3,0,6,0.00
2013-8-27,85,73,65,73,67,63,94,82,64,29.12,28.94,2,0,3,0.00
2013-8-28,76,72,71,72,70,67,98,93,84,29.03,28.85,4,0,5,0.00
2013-8-29,81,74,69,72,70,67,98,88,64,29.09,28.88,3,0,4,0.00
2013-8-30,83,73,66,71,68,65,98,87,64,29.12,28.94,4,0,6,0.14
2013-8-31,86,73,66,73,69,66,98,89,55,29.15,28.88,4,0,6,0.03
2013-9-1,83,73,66,75,70,65,98,91,67,28.94,28.82,4,0,5,0.00
2013-9-2,86,76,68,74,70,66,98,85,57,28.88,28.80,2,0,4,0.00
2013-9-3,82,73,67,70,65,58,95,77,53,29.03,28.80,3,0,4,0.00
2013-9-4,78,68,59,63,59,56,93,75,48,29.15,29.03,4,0,6,0.00
2013-9-5,82,69,59,64,59,56,94,74,45,29.18,29.06,2,0,3,0.00
2013-9-6,73,64,58,58,52,48,83,66,42,29.33,29.18,3,0,6,0.00
2013-9-7,77,65,56,62,58,53,94,78,53,29.21,29.00,4,0,6,0.00
2013-9-8,85,72,63,69,64,60,95,78,51,29.09,28.91,3,0,5,0.00
2013-9-9,75,70,66,65,60,54,92,72,57,29.30,29.06,3,0,5,0.00
2013-9-10,86,73,65,78,70,64,98,90,58,29.24,29.12,3,0,9,0.00
2013-9-11,87,76,69,78,72,68,98,90,59,29.24,29.06,2,0,4,0.00
2013-9-12,86,74,69,75,70,65,98,88,62,29.09,28.80,4,0,9,0.00
2013-9-13,75,68,60,66,56,47,93,67,40,29.00,28.80,5,1,8,0.00
2013-9-14,66,59,53,48,45,40,82,61,42,29.21,29.00,4,0,6,0.00
2013-9-15,73,61,50,59,52,46,92,76,48,29.33,29.12,4,0,6,0.00
2013-9-16,70,63,58,65,58,52,98,84,56,29.30,29.12,4,0,6,0.00
2013-9-17,67,59,51,55,50,45,84,73,49,29.50,29.30,3,0,5,0.00
2013-9-18,67,56,47,52,48,43,91,75,46,29.42,29.24,3,0,6,0.00
2013-9-19,72,62,53,61,55,50,94,80,58,29.27,29.12,2,0,4,0.00
2013-9-20,74,65,58,65,61,56,98,87,64,29.18,29.00,3,0,6,0.00
2013-9-21,67,65,62,66,64,61,98,98,94,29.03,28.74,2,0,2,0.00
2013-9-22,71,62,56,62,55,47,98,79,46,29.00,28.80,4,0,6,0.00
2013-9-23,65,56,49,52,47,42,93,73,47,29.18,29.00,4,0,6,0.00
2013-9-24,69,58,51,55,51,46,93,79,54,29.18,29.00,3,0,6,0.00
2013-9-25,69,60,53,60,54,48,97,81,50,29.06,28.94,2,0,4,0.00
2013-9-26,72,62,56,56,53,49,89,74,45,29.15,28.97,3,0,4,0.00
2013-9-27,70,61,53,58,54,51,94,80,50,29.33,29.06,2,0,4,0.00
2013-9-28,67,61,57,58,55,52,94,81,61,29.39,29.27,3,0,6,0.00
2013-9-29,70,60,52,55,51,47,93,76,45,29.27,29.12,3,0,5,0.00
2013-9-30,71,60,52,58,54,49,96,81,54,29.15,29.06,4,0,6,0.00
2013-10-1,76,65,58,64,58,55,98,79,51,29.18,29.06,3,0,5,0.00
2013-10-2,78,66,58,64,58,54,97,79,45,29.21,29.06,3,0,5,0.00
2013-10-3,77,67,60,66,62,58,96,83,61,29.24,29.12,2,0,4,0.00
2013-10-4,80,70,62,68,63,51,98,81,50,29.21,29.06,4,0,7,0.00
2013-10-5,82,71,64,69,64,60,96,80,49,29.21,29.06,4,0,6,0.00
2013-10-6,82,71,64,69,64,59,97,80,48,29.09,28.94,4,0,7,0.00
2013-10-7,70,66,57,68,62,42,98,86,57,29.12,28.82,3,0,7,1.67
2013-10-8,65,57,49,50,45,41,91,67,46,29.36,29.12,4,0,8,0.00
2013-10-9,61,56,53,51,47,42,91,71,58,29.39,29.27,4,0,6,0.17
2013-10-10,62,58,53,62,57,51,98,97,91,29.27,29.06,1,0,2,1.25
2013-10-11,65,60,57,61,59,57,98,96,84,29.12,29.00,1,0,2,0.12
2013-10-12,66,63,61,62,60,59,98,90,80,29.27,29.06,3,0,6,0.04
2013-10-13,63,61,59,60,59,58,97,93,84,29.39,29.27,2,0,5,0.17
2013-10-14,65,60,56,58,57,54,95,90,77,29.42,29.30,2,0,4,0.00
2013-10-15,68,59,52,59,54,50,98,85,57,29.33,29.18,2,0,4,0.00
2013-10-16,69,62,58,61,58,54,96,87,70,29.21,29.00,3,0,5,0.00
2013-10-17,71,64,59,64,61,55,98,91,70,29.03,28.82,4,0,6,0.00
2013-10-18,64,56,50,55,44,37,83,64,42,29.12,28.91,4,0,6,0.00
2013-10-19,62,54,48,53,49,45,94,82,59,29.06,28.82,3,0,4,0.00
2013-10-20,60,51,42,49,38,33,84,63,37,29.15,28.91,3,0,4,0.00
2013-10-21,64,51,42,46,42,38,91,72,42,29.21,28.97,4,0,6,0.00
2013-10-22,65,55,46,52,46,44,94,74,48,28.97,28.85,3,0,6,0.00
2013-10-23,57,49,43,45,39,31,90,69,46,28.97,28.65,3,0,4,0.04
2013-10-24,52,46,40,34,29,24,69,53,38,29.09,28.94,4,0,8,0.00
2013-10-25,53,46,38,27,25,22,59,45,36,29.39,29.09,4,1,9,0.00
2013-10-26,54,42,32,33,28,24,78,58,36,29.36,28.97,5,0,7,0.00
2013-10-27,59,48,39,39,35,32,78,62,38,29.18,29.00,3,0,6,0.00
2013-10-28,60,49,40,43,40,36,87,71,48,29.33,29.12,2,0,4,0.00
2013-10-29,61,51,44,45,42,40,90,73,49,29.47,29.30,2,0,4,0.00
2013-10-30,65,56,50,56,51,43,94,84,69,29.36,29.18,2,0,4,0.04
2013-10-31,66,59,53,60,56,53,98,90,72,29.24,28.85,2,0,4,0.00
2013-11-1,64,60,46,63,55,25,97,84,43,29.09,28.65,2,0,3,0.00
2013-11-2,66,56,50,54,42,33,92,63,35,28.97,28.68,4,0,6,0.00
2013-11-3,57,49,40,35,30,24,58,48,32,29.44,28.97,6,1,12,0.00
2013-11-4,48,40,35,26,23,20,63,51,39,29.71,29.44,3,0,5,0.00
2013-11-5,54,45,34,44,32,25,80,61,46,29.68,29.47,2,0,3,0.00
2013-11-6,66,54,49,49,46,44,88,74,49,29.50,29.12,4,0,7,0.00
2013-11-7,62,52,43,57,42,21,98,74,41,29.15,28.91,5,0,9,0.00
2013-11-8,51,42,34,26,23,20,65,48,34,29.36,29.12,6,1,10,0.00
2013-11-9,54,41,31,29,25,23,76,56,36,29.42,29.09,4,0,7,0.00
2013-11-10,63,47,36,37,27,21,74,49,25,29.30,29.00,6,1,9,0.00
2013-11-11,57,45,37,29,25,21,61,46,32,29.36,29.00,4,0,7,0.00
2013-11-12,50,40,31,32,20,11,58,45,37,29.42,28.94,6,2,8,0.00
2013-11-13,40,32,28,15,13,11,52,44,35,29.47,29.39,2,0,3,0.00
2013-11-14,58,39,26,26,17,12,58,43,25,29.39,29.24,3,0,6,0.00
2013-11-15,60,44,32,39,24,16,75,46,26,29.33,29.21,4,0,4,0.00
2013-11-16,56,49,43,49,45,38,95,84,72,29.36,29.24,2,0,5,0.05
2013-11-17,57,54,51,57,54,49,98,98,95,29.27,28.77,1,0,4,0.03
2013-11-18,64,58,47,58,34,22,98,44,26,29.00,28.71,6,1,12,0.09
2013-11-19,49,42,34,24,22,20,60,44,37,29.39,29.00,6,1,10,0.00
2013-11-20,45,37,32,26,22,19,70,54,39,29.59,29.39,3,0,4,0.00
2013-11-21,49,43,34,39,33,25,77,68,59,29.59,29.39,2,0,4,0.00
2013-11-22,66,55,46,52,46,38,80,72,54,29.42,29.06,3,0,6,0.00
2013-11-23,59,47,33,48,26,13,68,44,27,29.50,29.00,6,1,14,0.00
2013-11-24,33,27,23,13,4,1,45,37,32,29.53,29.21,7,2,12,0.00
2013-11-25,35,28,21,14,8,3,53,43,36,29.56,29.33,4,0,9,0.00
2013-11-26,41,35,33,40,25,12,96,69,40,29.33,28.56,3,0,4,1.70
2013-11-27,43,38,28,41,27,8,97,67,41,29.09,28.50,12,2,13,0.24
2013-11-28,38,30,24,18,13,8,63,49,40,29.47,29.09,7,1,10,0.00
2013-11-29,41,31,24,23,18,15,72,59,43,29.71,29.44,3,0,5,0.00
2013-11-30,39,30,25,20,18,15,71,60,44,29.74,29.33,3,0,4,0.00
2013-12-1,50,36,24,31,25,18,79,65,40,29.50,29.00,2,0,3,0.00
2013-12-2,48,43,40,34,31,29,74,63,49,29.00,28.85,3,0,4,0.00
2013-12-3,53,43,37,36,33,30,82,69,49,29.00,28.85,3,0,4,0.00
2013-12-4,59,49,41,48,43,35,88,78,63,29.09,28.97,3,0,4,0.00
2013-12-5,65,57,51,58,54,49,98,91,77,29.09,28.97,4,0,6,0.00
2013-12-6,61,52,42,61,52,39,98,97,89,29.15,28.91,3,0,5,1.13
2013-12-7,44,39,32,41,32,21,97,77,52,29.53,29.09,4,0,6,0.05
2013-12-8,33,31,30,32,26,19,96,80,64,29.56,29.24,2,0,4,0.04
2013-12-9,45,35,33,35,33,22,98,95,40,29.30,29.00,1,0,2,0.07
2013-12-10,45,33,30,33,25,13,98,75,40,29.21,29.00,5,0,7,0.05
2013-12-11,40,32,26,20,17,11,64,54,40,29.42,29.18,4,0,10,0.08
2013-12-12,35,30,24,18,11,7,56,45,33,29.44,29.24,4,1,6,0.00
2013-12-13,44,34,23,21,14,8,59,45,32,29.30,29.21,7,1,17,0.08
2013-12-14,37,35,33,35,29,19,93,77,54,29.36,28.71,2,0,2,0.29
2013-12-15,46,38,32,38,27,18,98,67,41,28.91,28.65,5,1,8,0.00
2013-12-16,42,36,32,27,25,22,75,64,48,29.15,28.88,3,0,4,0.05
2013-12-17,50,37,28,33,28,23,84,70,47,29.12,28.88,4,0,7,0.00
2013-12-18,42,35,30,33,19,16,98,53,39,29.21,28.97,4,1,5,0.00
2013-12-19,60,42,29,31,23,17,65,49,30,29.24,29.06,5,0,9,0.00
2013-12-20,56,45,36,34,29,24,70,54,39,29.18,29.06,4,0,4,0.00
2013-12-21,67,54,43,56,44,33,87,69,52,29.09,28.94,4,0,7,0.00
2013-12-22,67,62,34,64,58,33,98,88,60,29.03,28.88,6,1,12,0.25
2013-12-23,60,54,38,60,47,25,98,77,46,29.21,28.97,5,1,7,0.71
2013-12-24,41,34,25,26,17,4,68,51,38,29.47,29.18,6,1,10,0.00
2013-12-25,32,25,19,12,8,4,60,49,41,29.59,29.39,4,0,6,0.00
2013-12-26,46,31,22,33,16,11,98,54,37,29.39,29.03,6,0,11,0.00
2013-12-27,48,35,27,23,17,14,60,50,37,29.47,29.36,4,0,6,0.00
2013-12-28,54,41,29,27,21,16,62,46,33,29.36,29.15,3,0,4,0.00
2013-12-29,50,45,40,47,38,23,95,78,46,29.15,28.56,4,0,5,1.65
2013-12-30,48,40,24,37,29,14,84,65,46,29.33,28.82,6,0,6,0.00
2013-12-31,44,35,29,27,20,13,78,56,36,29.33,29.12,6,1,11,0.00
2014-1-1,45,34,28,23,20,15,70,56,41,29.44,29.06,3,0,6,0.00
2014-1-2,38,34,30,30,26,21,89,73,57,29.09,28.59,2,0,3,0.00